createdAt,value
2017-03-31T00:00:00.339Z,15.07
2017-03-31T00:01:09.561Z,15.13
2017-03-31T00:02:18.447Z,15.08
2017-03-31T00:03:27.652Z,15.05
2017-03-31T00:04:36.890Z,15.02
2017-03-31T00:05:45.484Z,15.15
2017-03-31T00:06:54.059Z,15.2
2017-03-31T00:08:02.952Z,15.15
2017-03-31T00:09:11.526Z,15.1
2017-03-31T00:10:20.101Z,15.08
2017-03-31T00:11:28.671Z,15.12
2017-03-31T00:12:38.214Z,15.07
2017-03-31T00:13:47.423Z,15.07
2017-03-31T00:14:56.633Z,15.04
2017-03-31T00:16:05.530Z,15.1
2017-03-31T00:17:14.736Z,15.07
2017-03-31T00:18:23.623Z,15.02
2017-03-31T00:19:32.513Z,15.04
2017-03-31T00:20:41.411Z,14.97
2017-03-31T00:21:50.019Z,15
2017-03-31T00:22:58.916Z,14.89
2017-03-31T00:24:07.807Z,14.97
2017-03-31T00:25:16.697Z,14.98
2017-03-31T00:26:26.217Z,14.93
2017-03-31T00:27:35.430Z,14.95
2017-03-31T00:28:44.656Z,14.97
2017-03-31T00:29:53.372Z,14.95
2017-03-31T00:31:01.974Z,14.93
2017-03-31T00:32:10.868Z,14.87
2017-03-31T00:33:19.489Z,14.97
2017-03-31T00:34:28.382Z,14.86
2017-03-31T00:35:37.670Z,14.8
2017-03-31T00:36:46.242Z,14.83
2017-03-31T00:37:54.885Z,14.83
2017-03-31T00:39:03.774Z,14.85
2017-03-31T00:40:12.668Z,14.7
2017-03-31T00:41:21.566Z,14.82
2017-03-31T00:42:30.138Z,14.82
2017-03-31T00:43:38.710Z,14.75
2017-03-31T00:44:47.887Z,14.83
2017-03-31T00:45:56.805Z,14.7
2017-03-31T00:47:06.016Z,14.79
2017-03-31T00:48:14.671Z,14.79
2017-03-31T00:49:23.714Z,14.75
2017-03-31T00:50:33.239Z,14.69
2017-03-31T00:51:42.447Z,14.79
2017-03-31T00:52:51.343Z,14.75
2017-03-31T00:54:00.237Z,14.64
2017-03-31T00:55:09.758Z,14.61
2017-03-31T00:56:18.339Z,14.71
2017-03-31T00:57:27.265Z,14.69
2017-03-31T00:58:35.931Z,14.64
2017-03-31T00:59:44.505Z,14.59
2017-03-31T01:00:53.079Z,14.52
2017-03-31T01:02:01.968Z,14.48
2017-03-31T01:03:10.939Z,14.48
2017-03-31T01:04:19.517Z,14.41
2017-03-31T01:05:28.089Z,14.34
2017-03-31T01:06:37.062Z,14.33
2017-03-31T01:07:49.209Z,14.3
2017-03-31T01:08:57.810Z,14.3
2017-03-31T01:10:06.714Z,14.33
2017-03-31T01:11:15.607Z,14.27
2017-03-31T01:12:24.185Z,14.19
2017-03-31T01:13:32.846Z,14.21
2017-03-31T01:14:41.736Z,14.11
2017-03-31T01:15:50.628Z,14.16
2017-03-31T01:16:59.262Z,14.09
2017-03-31T01:18:07.878Z,14.2
2017-03-31T01:19:17.086Z,14.13
2017-03-31T01:20:26.611Z,14.01
2017-03-31T01:21:35.753Z,14.01
2017-03-31T01:22:45.279Z,14.02
2017-03-31T01:23:53.854Z,14.01
2017-03-31T01:25:02.757Z,13.95
2017-03-31T01:26:11.649Z,13.97
2017-03-31T01:27:20.877Z,13.99
2017-03-31T01:28:29.790Z,14.05
2017-03-31T01:29:38.680Z,14.11
2017-03-31T01:30:47.970Z,14.05
2017-03-31T01:31:56.982Z,14.06
2017-03-31T01:33:06.247Z,14.01
2017-03-31T01:34:14.823Z,14.06
2017-03-31T01:35:23.712Z,14.02
2017-03-31T01:36:32.608Z,14.02
2017-03-31T01:37:41.501Z,13.95
2017-03-31T01:38:50.707Z,13.97
2017-03-31T01:39:59.728Z,14.06
2017-03-31T01:41:08.654Z,14.06
2017-03-31T01:42:17.372Z,14.09
2017-03-31T01:43:25.951Z,14.03
2017-03-31T01:44:35.155Z,14.01
2017-03-31T01:45:44.361Z,14.03
2017-03-31T01:46:52.938Z,14.02
2017-03-31T01:48:02.151Z,13.91
2017-03-31T01:49:11.360Z,13.97
2017-03-31T01:50:20.254Z,13.99
2017-03-31T01:51:29.152Z,13.97
2017-03-31T01:52:37.730Z,13.95
2017-03-31T01:53:46.873Z,13.95
2017-03-31T01:54:55.766Z,13.79
2017-03-31T01:56:04.976Z,13.86
2017-03-31T01:57:14.186Z,13.9
2017-03-31T01:58:23.391Z,13.9
2017-03-31T01:59:32.286Z,13.86
2017-03-31T02:00:41.496Z,13.72
2017-03-31T02:01:50.074Z,13.75
2017-03-31T02:02:58.969Z,13.78
2017-03-31T02:04:07.547Z,13.79
2017-03-31T02:05:16.459Z,13.78
2017-03-31T02:06:25.033Z,13.79
2017-03-31T02:07:33.927Z,13.86
2017-03-31T02:08:43.453Z,13.81
2017-03-31T02:09:52.034Z,13.73
2017-03-31T02:11:01.552Z,13.84
2017-03-31T02:12:10.129Z,13.84
2017-03-31T02:13:18.702Z,13.84
2017-03-31T02:14:27.616Z,13.81
2017-03-31T02:15:36.509Z,13.83
2017-03-31T02:16:45.721Z,13.83
2017-03-31T02:17:54.613Z,13.87
2017-03-31T02:19:03.814Z,13.81
2017-03-31T02:20:13.020Z,13.79
2017-03-31T02:21:21.908Z,13.88
2017-03-31T02:22:30.795Z,13.83
2017-03-31T02:23:39.368Z,13.84
2017-03-31T02:24:47.942Z,13.86
2017-03-31T02:25:56.514Z,13.87
2017-03-31T02:27:05.423Z,13.9
2017-03-31T02:28:13.995Z,13.91
2017-03-31T02:29:23.081Z,13.88
2017-03-31T02:30:31.971Z,13.9
2017-03-31T02:31:40.929Z,13.9
2017-03-31T02:32:49.817Z,13.86
2017-03-31T02:33:59.037Z,13.93
2017-03-31T02:35:08.241Z,13.9
2017-03-31T02:36:17.129Z,13.81
2017-03-31T02:37:26.030Z,13.78
2017-03-31T02:38:34.603Z,13.83
2017-03-31T02:39:43.175Z,13.88
2017-03-31T02:40:52.066Z,13.86
2017-03-31T02:42:00.638Z,13.88
2017-03-31T02:43:09.851Z,13.86
2017-03-31T02:44:18.423Z,13.79
2017-03-31T02:45:27.318Z,13.79
2017-03-31T02:46:36.213Z,13.84
2017-03-31T02:47:45.408Z,13.79
2017-03-31T02:48:54.480Z,13.78
2017-03-31T02:50:03.314Z,13.73
2017-03-31T02:51:12.893Z,13.72
2017-03-31T02:52:22.934Z,13.75
2017-03-31T02:53:32.779Z,13.76
2017-03-31T02:54:41.351Z,13.79
2017-03-31T02:55:50.554Z,13.86
2017-03-31T02:56:59.473Z,13.79
2017-03-31T02:58:08.370Z,13.78
2017-03-31T02:59:17.583Z,13.73
2017-03-31T03:00:26.159Z,13.79
2017-03-31T03:01:35.054Z,13.78
2017-03-31T03:02:43.628Z,13.69
2017-03-31T03:03:52.512Z,13.73
2017-03-31T03:05:01.080Z,13.73
2017-03-31T03:06:09.660Z,13.63
2017-03-31T03:07:18.866Z,13.62
2017-03-31T03:08:27.754Z,13.54
2017-03-31T03:09:36.321Z,13.55
2017-03-31T03:10:44.926Z,13.51
2017-03-31T03:11:53.499Z,13.42
2017-03-31T03:13:02.077Z,13.45
2017-03-31T03:14:10.995Z,13.45
2017-03-31T03:15:19.892Z,13.48
2017-03-31T03:16:28.781Z,13.48
2017-03-31T03:17:37.672Z,13.51
2017-03-31T03:18:46.600Z,13.53
2017-03-31T03:19:55.813Z,13.55
2017-03-31T03:21:04.707Z,13.63
2017-03-31T03:22:13.603Z,13.58
2017-03-31T03:23:22.497Z,13.72
2017-03-31T03:24:31.388Z,13.69
2017-03-31T03:25:40.288Z,13.65
2017-03-31T03:26:48.861Z,13.75
2017-03-31T03:27:57.753Z,13.76
2017-03-31T03:29:06.327Z,13.78
2017-03-31T03:30:14.914Z,13.73
2017-03-31T03:31:23.809Z,13.78
2017-03-31T03:32:33.010Z,13.72
2017-03-31T03:33:42.531Z,13.76
2017-03-31T03:34:51.731Z,13.73
2017-03-31T03:36:00.948Z,13.83
2017-03-31T03:37:09.843Z,13.83
2017-03-31T03:38:19.047Z,13.81
2017-03-31T03:39:27.948Z,13.72
2017-03-31T03:40:36.519Z,13.78
2017-03-31T03:41:45.411Z,13.75
2017-03-31T03:42:54.615Z,13.76
2017-03-31T03:44:04.134Z,13.72
2017-03-31T03:45:13.022Z,13.66
2017-03-31T03:46:21.592Z,13.72
2017-03-31T03:47:30.484Z,13.65
2017-03-31T03:48:39.059Z,13.63
2017-03-31T03:49:47.951Z,13.66
2017-03-31T03:50:57.165Z,13.7
2017-03-31T03:52:06.080Z,13.6
2017-03-31T03:53:14.971Z,13.62
2017-03-31T03:54:23.570Z,13.62
2017-03-31T03:55:32.457Z,13.58
2017-03-31T03:56:41.027Z,13.62
2017-03-31T03:57:49.922Z,13.55
2017-03-31T03:58:58.531Z,13.58
2017-03-31T04:00:07.102Z,13.58
2017-03-31T04:01:15.683Z,13.63
2017-03-31T04:02:24.258Z,13.63
2017-03-31T04:03:33.147Z,13.55
2017-03-31T04:04:41.725Z,13.58
2017-03-31T04:05:50.928Z,13.63
2017-03-31T04:06:59.499Z,13.55
2017-03-31T04:08:08.094Z,13.63
2017-03-31T04:09:16.985Z,13.5
2017-03-31T04:10:26.317Z,13.54
2017-03-31T04:11:35.225Z,13.57
2017-03-31T04:12:44.458Z,13.53
2017-03-31T04:13:53.041Z,13.44
2017-03-31T04:15:01.964Z,13.39
2017-03-31T04:16:11.521Z,13.47
2017-03-31T04:17:20.098Z,13.45
2017-03-31T04:18:29.618Z,13.37
2017-03-31T04:19:38.822Z,13.44
2017-03-31T04:20:47.550Z,13.42
2017-03-31T04:21:56.496Z,13.45
2017-03-31T04:23:05.074Z,13.4
2017-03-31T04:24:14.047Z,13.47
2017-03-31T04:25:22.945Z,13.47
2017-03-31T04:26:32.155Z,13.37
2017-03-31T04:27:41.045Z,13.36
2017-03-31T04:28:49.654Z,13.4
2017-03-31T04:29:58.560Z,13.4
2017-03-31T04:31:07.137Z,13.37
2017-03-31T04:32:15.718Z,13.36
2017-03-31T04:33:24.608Z,13.29
2017-03-31T04:34:33.814Z,13.45
2017-03-31T04:35:43.077Z,13.44
2017-03-31T04:36:52.294Z,13.48
2017-03-31T04:38:00.871Z,13.48
2017-03-31T04:39:09.468Z,13.47
2017-03-31T04:40:18.119Z,13.44
2017-03-31T04:41:27.326Z,13.45
2017-03-31T04:42:36.228Z,13.45
2017-03-31T04:43:45.125Z,13.48
2017-03-31T04:44:54.086Z,13.44
2017-03-31T04:46:03.004Z,13.31
2017-03-31T04:47:12.261Z,13.37
2017-03-31T04:48:21.514Z,13.29
2017-03-31T04:49:31.090Z,13.36
2017-03-31T04:50:40.004Z,13.28
2017-03-31T04:51:48.609Z,13.28
2017-03-31T04:52:57.839Z,13.25
2017-03-31T04:54:06.422Z,13.28
2017-03-31T04:55:15.091Z,13.14
2017-03-31T04:56:24.934Z,13.17
2017-03-31T04:57:34.140Z,13.27
2017-03-31T04:58:43.344Z,13.17
2017-03-31T04:59:51.921Z,13.16
2017-03-31T05:01:00.807Z,13.27
2017-03-31T05:02:09.703Z,13.25
2017-03-31T05:03:18.280Z,13.24
2017-03-31T05:04:27.489Z,13.2
2017-03-31T05:05:36.697Z,13.2
2017-03-31T05:06:45.589Z,13.19
2017-03-31T05:07:54.483Z,13.19
2017-03-31T05:09:03.056Z,13.11
2017-03-31T05:10:11.828Z,13.17
2017-03-31T05:11:22.738Z,13.25
2017-03-31T05:12:32.031Z,13.16
2017-03-31T05:13:40.607Z,13.19
2017-03-31T05:14:49.183Z,13.17
2017-03-31T05:15:58.102Z,13.16
2017-03-31T05:17:07.977Z,13.28
2017-03-31T05:18:18.577Z,13.16
2017-03-31T05:19:27.149Z,13.17
2017-03-31T05:20:36.078Z,13.25
2017-03-31T05:21:44.847Z,13.25
2017-03-31T05:22:53.734Z,13.16
2017-03-31T05:24:02.947Z,13.14
2017-03-31T05:25:12.155Z,13.13
2017-03-31T05:26:21.368Z,13.25
2017-03-31T05:27:30.261Z,13.27
2017-03-31T05:28:39.466Z,13.19
2017-03-31T05:29:48.360Z,13.19
2017-03-31T05:30:57.565Z,13.19
2017-03-31T05:32:07.021Z,13.27
2017-03-31T05:33:15.918Z,13.31
2017-03-31T05:34:24.493Z,13.31
2017-03-31T05:35:33.705Z,13.28
2017-03-31T05:36:42.592Z,13.29
2017-03-31T05:37:51.481Z,13.29
2017-03-31T05:39:00.435Z,13.37
2017-03-31T05:40:09.327Z,13.31
2017-03-31T05:41:18.533Z,13.32
2017-03-31T05:42:27.428Z,13.32
2017-03-31T05:43:36.324Z,13.42
2017-03-31T05:44:45.214Z,13.4
2017-03-31T05:45:54.100Z,13.44
2017-03-31T05:47:03.312Z,13.47
2017-03-31T05:48:12.530Z,13.42
2017-03-31T05:49:21.421Z,13.45
2017-03-31T05:50:30.313Z,13.48
2017-03-31T05:51:38.884Z,13.51
2017-03-31T05:52:47.461Z,13.54
2017-03-31T05:53:56.354Z,13.62
2017-03-31T05:55:05.247Z,13.62
2017-03-31T05:56:14.603Z,13.65
2017-03-31T05:57:23.173Z,13.72
2017-03-31T05:58:31.749Z,13.72
2017-03-31T05:59:40.967Z,13.62
2017-03-31T06:00:49.579Z,13.79
2017-03-31T06:01:58.554Z,13.69
2017-03-31T06:03:07.774Z,13.76
2017-03-31T06:04:16.671Z,13.65
2017-03-31T06:05:25.245Z,13.73
2017-03-31T06:06:33.825Z,13.73
2017-03-31T06:07:42.436Z,13.81
2017-03-31T06:08:51.959Z,13.75
2017-03-31T06:10:00.783Z,13.86
2017-03-31T06:11:09.673Z,13.76
2017-03-31T06:12:18.245Z,13.83
2017-03-31T06:13:27.137Z,13.93
2017-03-31T06:14:36.021Z,13.87
2017-03-31T06:15:44.908Z,13.97
2017-03-31T06:16:54.427Z,13.99
2017-03-31T06:18:03.010Z,13.95
2017-03-31T06:19:11.586Z,14.01
2017-03-31T06:20:20.477Z,14.05
2017-03-31T06:21:29.688Z,14.13
2017-03-31T06:22:38.581Z,14.13
2017-03-31T06:23:47.470Z,14.13
2017-03-31T06:24:56.676Z,14.16
2017-03-31T06:26:05.567Z,14.24
2017-03-31T06:27:14.776Z,14.27
2017-03-31T06:28:23.663Z,14.28
2017-03-31T06:29:32.549Z,14.33
2017-03-31T06:30:42.044Z,14.34
2017-03-31T06:31:51.289Z,14.27
2017-03-31T06:32:59.861Z,14.3
2017-03-31T06:34:09.069Z,14.46
2017-03-31T06:35:17.644Z,14.34
2017-03-31T06:36:26.219Z,14.52
2017-03-31T06:37:35.118Z,14.46
2017-03-31T06:38:43.714Z,14.57
2017-03-31T06:39:52.294Z,14.52
2017-03-31T06:41:01.185Z,14.63
2017-03-31T06:42:10.076Z,14.63
2017-03-31T06:43:19.301Z,14.7
2017-03-31T06:44:28.189Z,14.75
2017-03-31T06:45:36.769Z,14.8
2017-03-31T06:46:45.672Z,14.8
2017-03-31T06:47:54.255Z,14.95
2017-03-31T06:49:03.779Z,14.87
2017-03-31T06:50:12.679Z,14.95
2017-03-31T06:51:21.772Z,15
2017-03-31T06:52:30.660Z,15
2017-03-31T06:53:39.237Z,15.04
2017-03-31T06:54:48.152Z,15.16
2017-03-31T06:55:57.384Z,15.15
2017-03-31T06:57:06.061Z,15.16
2017-03-31T06:58:14.883Z,15.22
2017-03-31T06:59:23.772Z,15.12
2017-03-31T07:00:32.347Z,15.2
2017-03-31T07:01:41.754Z,15.23
2017-03-31T07:02:50.328Z,15.3
2017-03-31T07:03:58.904Z,15.26
2017-03-31T07:05:07.485Z,15.26
2017-03-31T07:06:16.391Z,15.35
2017-03-31T07:07:25.342Z,15.43
2017-03-31T07:08:34.243Z,15.44
2017-03-31T07:09:43.526Z,15.43
2017-03-31T07:10:52.111Z,15.45
2017-03-31T07:12:01.582Z,15.4
2017-03-31T07:13:10.176Z,15.43
2017-03-31T07:14:19.710Z,15.49
2017-03-31T07:15:28.933Z,15.51
2017-03-31T07:16:38.456Z,15.47
2017-03-31T07:17:47.663Z,15.52
2017-03-31T07:18:56.877Z,15.56
2017-03-31T07:20:05.451Z,15.47
2017-03-31T07:21:14.603Z,15.59
2017-03-31T07:22:23.503Z,15.56
2017-03-31T07:23:32.078Z,15.7
2017-03-31T07:24:40.969Z,15.77
2017-03-31T07:25:50.176Z,15.74
2017-03-31T07:26:59.067Z,15.74
2017-03-31T07:28:08.290Z,15.86
2017-03-31T07:29:17.215Z,15.8
2017-03-31T07:30:26.107Z,15.86
2017-03-31T07:31:35.335Z,15.96
2017-03-31T07:32:44.380Z,15.95
2017-03-31T07:33:53.269Z,16.04
2017-03-31T07:35:02.161Z,16.14
2017-03-31T07:36:10.737Z,16.17
2017-03-31T07:37:19.718Z,16.22
2017-03-31T07:38:28.618Z,16.22
2017-03-31T07:39:38.145Z,16.22
2017-03-31T07:40:47.053Z,16.36
2017-03-31T07:41:55.837Z,16.27
2017-03-31T07:43:04.769Z,16.36
2017-03-31T07:44:13.357Z,16.47
2017-03-31T07:45:22.407Z,16.47
2017-03-31T07:46:31.305Z,16.48
2017-03-31T07:47:40.198Z,16.49
2017-03-31T07:48:48.769Z,16.57
2017-03-31T07:49:57.662Z,16.63
2017-03-31T07:51:07.199Z,16.66
2017-03-31T07:52:16.413Z,16.66
2017-03-31T07:53:24.987Z,16.69
2017-03-31T07:54:33.625Z,16.77
2017-03-31T07:55:43.157Z,16.88
2017-03-31T07:56:52.998Z,16.84
2017-03-31T07:58:01.580Z,16.88
2017-03-31T07:59:10.159Z,16.87
2017-03-31T08:00:19.052Z,16.94
2017-03-31T08:01:28.265Z,16.91
2017-03-31T08:02:37.180Z,16.95
2017-03-31T08:03:45.762Z,16.9
2017-03-31T08:04:54.669Z,16.99
2017-03-31T08:06:03.248Z,17
2017-03-31T08:07:12.454Z,16.99
2017-03-31T08:08:21.663Z,17.02
2017-03-31T08:09:30.561Z,17.12
2017-03-31T08:10:39.464Z,17.13
2017-03-31T08:11:48.362Z,17.18
2017-03-31T08:12:56.945Z,17.13
2017-03-31T08:14:05.848Z,17.24
2017-03-31T08:15:14.755Z,17.35
2017-03-31T08:16:23.650Z,17.42
2017-03-31T08:17:32.866Z,17.49
2017-03-31T08:18:41.805Z,17.55
2017-03-31T08:19:50.401Z,17.62
2017-03-31T08:20:58.979Z,17.69
2017-03-31T08:22:07.876Z,17.74
2017-03-31T08:23:16.777Z,17.76
2017-03-31T08:24:25.359Z,17.77
2017-03-31T08:25:34.263Z,17.8
2017-03-31T08:26:43.177Z,17.92
2017-03-31T08:27:51.756Z,17.94
2017-03-31T08:29:00.335Z,18.05
2017-03-31T08:30:09.544Z,18.2
2017-03-31T08:31:18.124Z,18.16
2017-03-31T08:32:27.328Z,18.26
2017-03-31T08:33:36.537Z,18.34
2017-03-31T08:34:46.066Z,18.32
2017-03-31T08:35:54.655Z,18.44
2017-03-31T08:37:03.867Z,18.47
2017-03-31T08:38:12.765Z,18.51
2017-03-31T08:39:21.658Z,18.5
2017-03-31T08:40:30.552Z,18.54
2017-03-31T08:41:39.449Z,18.56
2017-03-31T08:42:48.398Z,18.69
